sensor_id;sensor_type;location;lat;lon;timestamp;pressure;altitude;pressure_sealevel;temperature;humidity
28310;BME280;15571;50.974;13.936;2023-09-18T00:01:57;99916.66;;;18.20;100.00
28310;BME280;15571;50.974;13.936;2023-09-18T00:05:01;99908.84;;;18.17;100.00
28310;BME280;15571;50.974;13.936;2023-09-18T00:08:04;99913.34;;;18.15;100.00
28310;BME280;15571;50.974;13.936;2023-09-18T00:11:06;99907.22;;;18.13;100.00
28310;BME280;15571;50.974;13.936;2023-09-18T00:14:09;99903.00;;;18.09;100.00
28310;BME280;15571;50.974;13.936;2023-09-18T00:17:11;99909.88;;;18.13;100.00
28310;BME280;15571;50.974;13.936;2023-09-18T00:20:14;99898.72;;;18.07;100.00
28310;BME280;15571;50.974;13.936;2023-09-18T00:23:17;99897.81;;;18.06;100.00
28310;BME280;15571;50.974;13.936;2023-09-18T00:26:23;99888.22;;;18.03;100.00
28310;BME280;15571;50.974;13.936;2023-09-18T00:29:28;99889.34;;;17.98;100.00
28310;BME280;15571;50.974;13.936;2023-09-18T00:32:30;99885.38;;;18.08;100.00
28310;BME280;15571;50.974;13.936;2023-09-18T00:35:32;99887.34;;;18.03;100.00
28310;BME280;15571;50.974;13.936;2023-09-18T00:38:34;99890.00;;;18.03;100.00
28310;BME280;15571;50.974;13.936;2023-09-18T00:41:35;99896.25;;;18.02;100.00
28310;BME280;15571;50.974;13.936;2023-09-18T00:44:39;99895.31;;;18.03;100.00
28310;BME280;15571;50.974;13.936;2023-09-18T00:47:41;99891.72;;;18.04;100.00
28310;BME280;15571;50.974;13.936;2023-09-18T00:50:44;99890.81;;;18.05;100.00
28310;BME280;15571;50.974;13.936;2023-09-18T00:53:54;99879.38;;;18.04;100.00
28310;BME280;15571;50.974;13.936;2023-09-18T00:56:56;99883.78;;;18.04;100.00
28310;BME280;15571;50.974;13.936;2023-09-18T01:00:00;99874.91;;;18.05;100.00
28310;BME280;15571;50.974;13.936;2023-09-18T01:03:02;99865.19;;;18.06;100.00
28310;BME280;15571;50.974;13.936;2023-09-18T01:06:11;99862.19;;;18.13;100.00
28310;BME280;15571;50.974;13.936;2023-09-18T01:09:12;99856.19;;;18.10;100.00
28310;BME280;15571;50.974;13.936;2023-09-18T01:12:18;99855.53;;;18.04;100.00
28310;BME280;15571;50.974;13.936;2023-09-18T01:15:26;99847.50;;;18.27;100.00
28310;BME280;15571;50.974;13.936;2023-09-18T01:18:31;99845.78;;;18.26;100.00
28310;BME280;15571;50.974;13.936;2023-09-18T01:21:36;99840.63;;;18.23;100.00
28310;BME280;15571;50.974;13.936;2023-09-18T01:24:41;99840.63;;;18.23;100.00
28310;BME280;15571;50.974;13.936;2023-09-18T01:27:43;99843.53;;;18.16;100.00
28310;BME280;15571;50.974;13.936;2023-09-18T01:30:44;99835.59;;;18.16;100.00
28310;BME280;15571;50.974;13.936;2023-09-18T01:33:47;99837.72;;;18.08;100.00
28310;BME280;15571;50.974;13.936;2023-09-18T01:36:51;99831.53;;;18.28;100.00
28310;BME280;15571;50.974;13.936;2023-09-18T01:39:55;99826.31;;;18.27;100.00
28310;BME280;15571;50.974;13.936;2023-09-18T01:43:02;99828.63;;;18.34;100.00
28310;BME280;15571;50.974;13.936;2023-09-18T01:46:04;99824.19;;;18.35;100.00
28310;BME280;15571;50.974;13.936;2023-09-18T01:49:07;99812.78;;;18.33;100.00
28310;BME280;15571;50.974;13.936;2023-09-18T01:52:09;99812.56;;;18.18;100.00
28310;BME280;15571;50.974;13.936;2023-09-18T01:55:18;99802.47;;;18.27;100.00
28310;BME280;15571;50.974;13.936;2023-09-18T01:58:21;99804.47;;;18.22;100.00
28310;BME280;15571;50.974;13.936;2023-09-18T02:01:23;99809.50;;;18.28;100.00
28310;BME280;15571;50.974;13.936;2023-09-18T02:04:25;99806.09;;;18.45;100.00
28310;BME280;15571;50.974;13.936;2023-09-18T02:07:27;99799.63;;;18.31;100.00
28310;BME280;15571;50.974;13.936;2023-09-18T02:10:33;99802.47;;;18.27;100.00
28310;BME280;15571;50.974;13.936;2023-09-18T02:13:35;99795.53;;;18.24;100.00
28310;BME280;15571;50.974;13.936;2023-09-18T02:16:37;99803.59;;;18.21;100.00
28310;BME280;15571;50.974;13.936;2023-09-18T02:19:44;99795.53;;;18.24;100.00
28310;BME280;15571;50.974;13.936;2023-09-18T02:22:46;99797.78;;;18.13;100.00
28310;BME280;15571;50.974;13.936;2023-09-18T02:25:56;99788.50;;;18.23;100.00
28310;BME280;15571;50.974;13.936;2023-09-18T02:28:58;99788.41;;;18.06;100.00
28310;BME280;15571;50.974;13.936;2023-09-18T02:32:02;99779.31;;;18.11;100.00
28310;BME280;15571;50.974;13.936;2023-09-18T02:35:06;99769.13;;;18.02;100.00
28310;BME280;15571;50.974;13.936;2023-09-18T02:38:09;99777.31;;;18.16;100.00
28310;BME280;15571;50.974;13.936;2023-09-18T02:41:12;99785.16;;;17.99;100.00
28310;BME280;15571;50.974;13.936;2023-09-18T02:44:14;99765.69;;;18.00;100.00
28310;BME280;15571;50.974;13.936;2023-09-18T02:47:16;99761.56;;;18.13;100.00
28310;BME280;15571;50.974;13.936;2023-09-18T02:50:20;99756.25;;;18.13;100.00
28310;BME280;15571;50.974;13.936;2023-09-18T02:53:22;99759.97;;;18.09;100.00
28310;BME280;15571;50.974;13.936;2023-09-18T02:56:26;99758.38;;;18.05;100.00
28310;BME280;15571;50.974;13.936;2023-09-18T02:59:30;99752.97;;;18.08;100.00
28310;BME280;15571;50.974;13.936;2023-09-18T03:02:32;99750.00;;;17.94;100.00
28310;BME280;15571;50.974;13.936;2023-09-18T03:05:34;99751.09;;;17.89;100.00
28310;BME280;15571;50.974;13.936;2023-09-18T03:08:36;99751.34;;;17.83;100.00
28310;BME280;15571;50.974;13.936;2023-09-18T03:11:41;99753.06;;;17.84;100.00
28310;BME280;15571;50.974;13.936;2023-09-18T03:14:44;99753.97;;;17.83;100.00
28310;BME280;15571;50.974;13.936;2023-09-18T03:17:48;99752.50;;;17.78;100.00
28310;BME280;15571;50.974;13.936;2023-09-18T03:20:52;99758.75;;;17.75;100.00
28310;BME280;15571;50.974;13.936;2023-09-18T03:23:55;99753.97;;;17.83;100.00
28310;BME280;15571;50.974;13.936;2023-09-18T03:26:59;99742.53;;;17.83;100.00
28310;BME280;15571;50.974;13.936;2023-09-18T03:30:01;99739.31;;;17.76;100.00
28310;BME280;15571;50.974;13.936;2023-09-18T03:33:03;99733.41;;;17.90;100.00
28310;BME280;15571;50.974;13.936;2023-09-18T03:36:05;99730.31;;;17.80;100.00
28310;BME280;15571;50.974;13.936;2023-09-18T03:39:09;99721.03;;;17.70;100.00
28310;BME280;15571;50.974;13.936;2023-09-18T03:42:12;99717.59;;;17.68;100.00
28310;BME280;15571;50.974;13.936;2023-09-18T03:45:18;99713.75;;;17.75;100.00
28310;BME280;15571;50.974;13.936;2023-09-18T03:48:22;99710.72;;;17.64;100.00
28310;BME280;15571;50.974;13.936;2023-09-18T03:51:24;99717.72;;;17.65;100.00
28310;BME280;15571;50.974;13.936;2023-09-18T03:54:26;99719.19;;;17.72;100.00
28310;BME280;15571;50.974;13.936;2023-09-18T03:57:29;99706.38;;;17.63;100.00
28310;BME280;15571;50.974;13.936;2023-09-18T04:00:31;99712.81;;;17.55;100.00
28310;BME280;15571;50.974;13.936;2023-09-18T04:03:35;99708.25;;;17.59;100.00
28310;BME280;15571;50.974;13.936;2023-09-18T04:06:42;99707.41;;;17.58;100.00
28310;BME280;15571;50.974;13.936;2023-09-18T04:09:45;99703.25;;;17.53;100.00
28310;BME280;15571;50.974;13.936;2023-09-18T04:12:48;99706.88;;;17.50;100.00
28310;BME280;15571;50.974;13.936;2023-09-18T04:15:50;99707.69;;;17.52;100.00
28310;BME280;15571;50.974;13.936;2023-09-18T04:18:57;99708.91;;;17.43;100.00
28310;BME280;15571;50.974;13.936;2023-09-18T04:21:59;99701.19;;;17.39;100.00
28310;BME280;15571;50.974;13.936;2023-09-18T04:25:01;99699.19;;;17.44;100.00
28310;BME280;15571;50.974;13.936;2023-09-18T04:28:07;99691.53;;;17.38;100.00
28310;BME280;15571;50.974;13.936;2023-09-18T04:31:09;99690.72;;;17.36;100.00
28310;BME280;15571;50.974;13.936;2023-09-18T04:34:11;99696.94;;;17.35;100.00
28310;BME280;15571;50.974;13.936;2023-09-18T04:37:16;99693.44;;;17.34;100.00
28310;BME280;15571;50.974;13.936;2023-09-18T04:40:18;99685.50;;;17.34;100.00
28310;BME280;15571;50.974;13.936;2023-09-18T04:43:21;99689.00;;;17.35;100.00
28310;BME280;15571;50.974;13.936;2023-09-18T04:46:26;99684.69;;;17.32;100.00
28310;BME280;15571;50.974;13.936;2023-09-18T04:49:31;99678.94;;;17.64;100.00
28310;BME280;15571;50.974;13.936;2023-09-18T04:52:34;99679.63;;;17.48;100.00
28310;BME280;15571;50.974;13.936;2023-09-18T04:55:38;99688.75;;;17.41;100.00
28310;BME280;15571;50.974;13.936;2023-09-18T04:58:50;99690.59;;;17.39;100.00
28310;BME280;15571;50.974;13.936;2023-09-18T05:01:52;99687.31;;;17.34;100.00
28310;BME280;15571;50.974;13.936;2023-09-18T05:04:55;99680.75;;;17.42;100.00
28310;BME280;15571;50.974;13.936;2023-09-18T05:07:57;99678.78;;;17.48;100.00
28310;BME280;15571;50.974;13.936;2023-09-18T05:11:01;99667.19;;;17.50;100.00
28310;BME280;15571;50.974;13.936;2023-09-18T05:14:04;99673.81;;;17.40;100.00
28310;BME280;15571;50.974;13.936;2023-09-18T05:17:09;99678.28;;;17.38;100.00
28310;BME280;15571;50.974;13.936;2023-09-18T05:20:12;99672.72;;;17.44;100.00
28310;BME280;15571;50.974;13.936;2023-09-18T05:23:16;99669.84;;;17.50;100.00
28310;BME280;15571;50.974;13.936;2023-09-18T05:26:18;99663.75;;;17.48;100.00
28310;BME280;15571;50.974;13.936;2023-09-18T05:29:22;99658.34;;;17.51;100.00
28310;BME280;15571;50.974;13.936;2023-09-18T05:32:24;99656.31;;;17.56;100.00
28310;BME280;15571;50.974;13.936;2023-09-18T05:35:26;99650.63;;;17.66;100.00
28310;BME280;15571;50.974;13.936;2023-09-18T05:38:29;99641.50;;;17.73;100.00
28310;BME280;15571;50.974;13.936;2023-09-18T05:41:31;99635.34;;;17.72;100.00
28310;BME280;15571;50.974;13.936;2023-09-18T05:44:37;99624.22;;;17.85;100.00
28310;BME280;15571;50.974;13.936;2023-09-18T05:47:40;99626.91;;;17.83;100.00
28310;BME280;15571;50.974;13.936;2023-09-18T05:50:45;99633.78;;;17.87;100.00
28310;BME280;15571;50.974;13.936;2023-09-18T05:53:48;99629.31;;;17.89;100.00
28310;BME280;15571;50.974;13.936;2023-09-18T05:56:50;99622.53;;;18.03;100.00
28310;BME280;15571;50.974;13.936;2023-09-18T05:59:54;99607.16;;;18.11;100.00
28310;BME280;15571;50.974;13.936;2023-09-18T06:02:58;99613.59;;;18.06;100.00
28310;BME280;15571;50.974;13.936;2023-09-18T06:06:00;99607.78;;;18.16;100.00
28310;BME280;15571;50.974;13.936;2023-09-18T06:09:02;99604.09;;;18.20;100.00
28310;BME280;15571;50.974;13.936;2023-09-18T06:12:04;99596.28;;;18.37;100.00
28310;BME280;15571;50.974;13.936;2023-09-18T06:15:08;99594.78;;;18.31;100.00
28310;BME280;15571;50.974;13.936;2023-09-18T06:18:14;99589.44;;;18.50;100.00
28310;BME280;15571;50.974;13.936;2023-09-18T06:21:16;99591.59;;;18.42;100.00
28310;BME280;15571;50.974;13.936;2023-09-18T06:24:18;99591.41;;;18.64;100.00
28310;BME280;15571;50.974;13.936;2023-09-18T06:27:22;99590.91;;;18.56;100.00
28310;BME280;15571;50.974;13.936;2023-09-18T06:30:26;99592.34;;;18.63;100.00
28310;BME280;15571;50.974;13.936;2023-09-18T06:33:30;99588.75;;;18.64;100.00
28310;BME280;15571;50.974;13.936;2023-09-18T06:36:32;99582.84;;;18.76;100.00
28310;BME280;15571;50.974;13.936;2023-09-18T06:39:36;99581.59;;;18.83;100.00
28310;BME280;15571;50.974;13.936;2023-09-18T06:42:38;99570.63;;;18.91;100.00
28310;BME280;15571;50.974;13.936;2023-09-18T06:45:41;99578.97;;;19.01;100.00
28310;BME280;15571;50.974;13.936;2023-09-18T06:48:46;99561.66;;;18.94;100.00
28310;BME280;15571;50.974;13.936;2023-09-18T06:51:49;99555.44;;;18.95;100.00
28310;BME280;15571;50.974;13.936;2023-09-18T06:54:51;99553.78;;;18.92;100.00
28310;BME280;15571;50.974;13.936;2023-09-18T06:57:53;99552.72;;;19.14;100.00
28310;BME280;15571;50.974;13.936;2023-09-18T07:00:57;99551.47;;;19.04;100.00
28310;BME280;15571;50.974;13.936;2023-09-18T07:03:59;99543.19;;;19.10;100.00
28310;BME280;15571;50.974;13.936;2023-09-18T07:07:01;99540.94;;;19.20;100.00
28310;BME280;15571;50.974;13.936;2023-09-18T07:10:09;99539.38;;;19.49;100.00
28310;BME280;15571;50.974;13.936;2023-09-18T07:13:10;99529.28;;;19.56;100.00
28310;BME280;15571;50.974;13.936;2023-09-18T07:16:14;99521.63;;;19.50;100.00
28310;BME280;15571;50.974;13.936;2023-09-18T07:19:16;99520.19;;;19.60;100.00
28310;BME280;15571;50.974;13.936;2023-09-18T07:22:20;99518.22;;;19.48;100.00
28310;BME280;15571;50.974;13.936;2023-09-18T07:25:22;99516.31;;;19.50;100.00
28310;BME280;15571;50.974;13.936;2023-09-18T07:28:24;99522.00;;;19.59;100.00
28310;BME280;15571;50.974;13.936;2023-09-18T07:31:27;99513.63;;;19.67;100.00
28310;BME280;15571;50.974;13.936;2023-09-18T07:34:29;99515.09;;;19.73;100.00
28310;BME280;15571;50.974;13.936;2023-09-18T07:37:31;99511.97;;;19.98;100.00
28310;BME280;15571;50.974;13.936;2023-09-18T07:40:33;99515.13;;;19.89;100.00
28310;BME280;15571;50.974;13.936;2023-09-18T07:43:35;99507.34;;;20.02;100.00
28310;BME280;15571;50.974;13.936;2023-09-18T07:46:39;99505.78;;;20.14;100.00
28310;BME280;15571;50.974;13.936;2023-09-18T07:49:41;99500.75;;;20.40;100.00
28310;BME280;15571;50.974;13.936;2023-09-18T07:52:43;99487.25;;;20.59;100.00
28310;BME280;15571;50.974;13.936;2023-09-18T07:55:45;99492.31;;;20.63;100.00
28310;BME280;15571;50.974;13.936;2023-09-18T07:58:47;99482.44;;;20.65;100.00
28310;BME280;15571;50.974;13.936;2023-09-18T08:01:50;99481.13;;;20.73;100.00
28310;BME280;15571;50.974;13.936;2023-09-18T08:04:52;99491.41;;;20.79;100.00
28310;BME280;15571;50.974;13.936;2023-09-18T08:07:54;99489.00;;;21.05;100.00
28310;BME280;15571;50.974;13.936;2023-09-18T08:10:57;99478.44;;;21.03;100.00
28310;BME280;15571;50.974;13.936;2023-09-18T08:14:02;99469.50;;;21.04;100.00
28310;BME280;15571;50.974;13.936;2023-09-18T08:17:05;99462.88;;;21.26;100.00
28310;BME280;15571;50.974;13.936;2023-09-18T08:20:09;99466.66;;;21.22;100.00
28310;BME280;15571;50.974;13.936;2023-09-18T08:23:14;99468.28;;;21.24;100.00
28310;BME280;15571;50.974;13.936;2023-09-18T08:26:15;99478.94;;;21.39;100.00
28310;BME280;15571;50.974;13.936;2023-09-18T08:29:25;99469.31;;;21.51;100.00
28310;BME280;15571;50.974;13.936;2023-09-18T08:32:31;99475.91;;;21.59;100.00
28310;BME280;15571;50.974;13.936;2023-09-18T08:35:34;99471.44;;;21.60;100.00
28310;BME280;15571;50.974;13.936;2023-09-18T08:38:36;99467.97;;;21.58;100.00
28310;BME280;15571;50.974;13.936;2023-09-18T08:41:38;99469.19;;;21.81;100.00
28310;BME280;15571;50.974;13.936;2023-09-18T08:44:49;99469.69;;;21.73;100.00
28310;BME280;15571;50.974;13.936;2023-09-18T08:47:54;99457.25;;;21.74;100.00
28310;BME280;15571;50.974;13.936;2023-09-18T08:50:56;99456.84;;;21.66;100.00
28310;BME280;15571;50.974;13.936;2023-09-18T08:53:58;99455.22;;;21.77;100.00
28310;BME280;15571;50.974;13.936;2023-09-18T08:57:00;99464.16;;;21.76;100.00
28310;BME280;15571;50.974;13.936;2023-09-18T09:00:03;99453.22;;;21.81;100.00
28310;BME280;15571;50.974;13.936;2023-09-18T09:03:09;99439.84;;;21.96;100.00
28310;BME280;15571;50.974;13.936;2023-09-18T09:06:16;99434.91;;;21.89;100.00
28310;BME280;15571;50.974;13.936;2023-09-18T09:09:18;99428.84;;;22.15;100.00
28310;BME280;15571;50.974;13.936;2023-09-18T09:15:45;99419.50;;;22.35;100.00
28310;BME280;15571;50.974;13.936;2023-09-18T09:18:50;99404.84;;;22.55;100.00
28310;BME280;15571;50.974;13.936;2023-09-18T09:21:52;99400.28;;;22.57;100.00
28310;BME280;15571;50.974;13.936;2023-09-18T09:24:54;99389.47;;;22.84;100.00
28310;BME280;15571;50.974;13.936;2023-09-18T09:27:56;99384.53;;;23.04;100.00
28310;BME280;15571;50.974;13.936;2023-09-18T09:31:01;99377.06;;;23.22;100.00
28310;BME280;15571;50.974;13.936;2023-09-18T09:34:05;99390.41;;;23.35;100.00
28310;BME280;15571;50.974;13.936;2023-09-18T09:37:09;99393.06;;;23.35;100.00
28310;BME280;15571;50.974;13.936;2023-09-18T09:40:11;99388.34;;;23.39;100.00
28310;BME280;15571;50.974;13.936;2023-09-18T09:43:17;99381.44;;;23.60;100.00
28310;BME280;15571;50.974;13.936;2023-09-18T09:46:20;99386.63;;;23.51;100.00
28310;BME280;15571;50.974;13.936;2023-09-18T09:49:24;99375.53;;;23.44;100.00
28310;BME280;15571;50.974;13.936;2023-09-18T09:52:28;99388.75;;;23.45;100.00
28310;BME280;15571;50.974;13.936;2023-09-18T09:55:31;99381.84;;;23.67;100.00
28310;BME280;15571;50.974;13.936;2023-09-18T09:58:34;99390.78;;;23.79;100.00
28310;BME280;15571;50.974;13.936;2023-09-18T10:01:36;99394.25;;;23.68;100.00
28310;BME280;15571;50.974;13.936;2023-09-18T10:04:46;99403.72;;;23.72;100.00
28310;BME280;15571;50.974;13.936;2023-09-18T10:07:49;99392.00;;;23.99;100.00
28310;BME280;15571;50.974;13.936;2023-09-18T10:10:55;99388.03;;;24.05;100.00
28310;BME280;15571;50.974;13.936;2023-09-18T10:13:59;99393.75;;;24.12;100.00
28310;BME280;15571;50.974;13.936;2023-09-18T10:17:08;99393.16;;;24.19;100.00
28310;BME280;15571;50.974;13.936;2023-09-18T10:20:16;99388.00;;;24.29;100.00
28310;BME280;15571;50.974;13.936;2023-09-18T10:23:27;99383.88;;;24.36;100.00
28310;BME280;15571;50.974;13.936;2023-09-18T10:26:35;99401.00;;;24.34;100.00
28310;BME280;15571;50.974;13.936;2023-09-18T10:29:41;99421.66;;;24.32;100.00
28310;BME280;15571;50.974;13.936;2023-09-18T10:32:45;99417.97;;;24.21;100.00
28310;BME280;15571;50.974;13.936;2023-09-18T10:35:50;99396.31;;;24.13;100.00
28310;BME280;15571;50.974;13.936;2023-09-18T10:38:55;99387.44;;;24.13;100.00
28310;BME280;15571;50.974;13.936;2023-09-18T10:41:58;99399.09;;;24.12;100.00
28310;BME280;15571;50.974;13.936;2023-09-18T10:45:08;99407.69;;;24.28;100.00
28310;BME280;15571;50.974;13.936;2023-09-18T10:48:10;99422.50;;;24.32;100.00
28310;BME280;15571;50.974;13.936;2023-09-18T10:51:20;99410.75;;;24.11;100.00
28310;BME280;15571;50.974;13.936;2023-09-18T10:54:23;99409.72;;;24.00;100.00
28310;BME280;15571;50.974;13.936;2023-09-18T10:57:25;99393.50;;;24.15;100.00
28310;BME280;15571;50.974;13.936;2023-09-18T11:00:28;99383.66;;;24.15;100.00
28310;BME280;15571;50.974;13.936;2023-09-18T11:03:38;99385.66;;;24.24;100.00
28310;BME280;15571;50.974;13.936;2023-09-18T11:10:26;99390.81;;;24.50;100.00
28310;BME280;15571;50.974;13.936;2023-09-18T11:13:28;99389.59;;;24.54;100.00
28310;BME280;15571;50.974;13.936;2023-09-18T11:16:34;99380.50;;;24.57;100.00
28310;BME280;15571;50.974;13.936;2023-09-18T11:19:40;99384.53;;;24.63;100.00
28310;BME280;15571;50.974;13.936;2023-09-18T11:26:11;99373.47;;;24.67;100.00
28310;BME280;15571;50.974;13.936;2023-09-18T11:29:17;99375.06;;;24.70;100.00
28310;BME280;15571;50.974;13.936;2023-09-18T11:32:37;99365.16;;;24.59;100.00
28310;BME280;15571;50.974;13.936;2023-09-18T11:35:40;99368.94;;;24.56;100.00
28310;BME280;15571;50.974;13.936;2023-09-18T11:38:54;99363.63;;;24.68;100.00
28310;BME280;15571;50.974;13.936;2023-09-18T11:42:07;99372.41;;;24.70;100.00
28310;BME280;15571;50.974;13.936;2023-09-18T11:45:16;99375.06;;;24.70;100.00
28310;BME280;15571;50.974;13.936;2023-09-18T11:48:18;99386.41;;;24.85;100.00
28310;BME280;15571;50.974;13.936;2023-09-18T11:51:23;99390.78;;;24.86;100.00
28310;BME280;15571;50.974;13.936;2023-09-18T11:54:26;99387.75;;;24.91;100.00
28310;BME280;15571;50.974;13.936;2023-09-18T11:57:30;99385.44;;;24.86;100.00
28310;BME280;15571;50.974;13.936;2023-09-18T12:00:37;99380.31;;;24.83;100.00
28310;BME280;15571;50.974;13.936;2023-09-18T12:03:46;99374.91;;;24.60;100.00
28310;BME280;15571;50.974;13.936;2023-09-18T12:06:54;99376.88;;;24.58;100.00
28310;BME280;15571;50.974;13.936;2023-09-18T12:09:56;99373.19;;;24.59;100.00
28310;BME280;15571;50.974;13.936;2023-09-18T12:13:06;99363.50;;;24.58;100.00
28310;BME280;15571;50.974;13.936;2023-09-18T12:16:15;99360.84;;;24.81;100.00
28310;BME280;15571;50.974;13.936;2023-09-18T12:19:19;99354.53;;;24.82;100.00
28310;BME280;15571;50.974;13.936;2023-09-18T12:22:25;99347.09;;;24.85;100.00
28310;BME280;15571;50.974;13.936;2023-09-18T12:25:27;99350.16;;;25.04;100.00
28310;BME280;15571;50.974;13.936;2023-09-18T12:28:30;99350.50;;;25.10;100.00
28310;BME280;15571;50.974;13.936;2023-09-18T12:31:32;99354.53;;;24.93;100.00
28310;BME280;15571;50.974;13.936;2023-09-18T12:34:37;99360.38;;;24.87;100.00
28310;BME280;15571;50.974;13.936;2023-09-18T12:37:44;99363.78;;;24.78;100.00
28310;BME280;15571;50.974;13.936;2023-09-18T12:40:46;99362.78;;;24.67;100.00
28310;BME280;15571;50.974;13.936;2023-09-18T12:43:56;99371.53;;;24.81;100.00
28310;BME280;15571;50.974;13.936;2023-09-18T12:47:01;99362.31;;;24.85;100.00
28310;BME280;15571;50.974;13.936;2023-09-18T12:50:04;99368.78;;;24.82;100.00
28310;BME280;15571;50.974;13.936;2023-09-18T12:53:08;99374.22;;;24.81;100.00
28310;BME280;15571;50.974;13.936;2023-09-18T12:56:11;99363.53;;;24.92;100.00
28310;BME280;15571;50.974;13.936;2023-09-18T12:59:16;99357.94;;;25.07;100.00
28310;BME280;15571;50.974;13.936;2023-09-18T13:02:19;99361.53;;;25.28;100.00
28310;BME280;15571;50.974;13.936;2023-09-18T13:05:21;99355.72;;;25.46;100.00
28310;BME280;15571;50.974;13.936;2023-09-18T13:08:26;99357.34;;;25.70;100.00
28310;BME280;15571;50.974;13.936;2023-09-18T13:11:28;99354.44;;;25.61;100.00
28310;BME280;15571;50.974;13.936;2023-09-18T13:14:49;99358.97;;;25.61;100.00
28310;BME280;15571;50.974;13.936;2023-09-18T13:17:58;99348.13;;;25.51;100.00
28310;BME280;15571;50.974;13.936;2023-09-18T13:21:08;99349.59;;;25.55;100.00
28310;BME280;15571;50.974;13.936;2023-09-18T13:24:23;99341.03;;;25.61;100.00
28310;BME280;15571;50.974;13.936;2023-09-18T13:27:25;99343.38;;;25.55;100.00
28310;BME280;15571;50.974;13.936;2023-09-18T13:30:28;99325.19;;;25.70;100.00
28310;BME280;15571;50.974;13.936;2023-09-18T13:33:31;99342.50;;;25.66;100.00
28310;BME280;15571;50.974;13.936;2023-09-18T13:36:34;99343.22;;;25.68;100.00
28310;BME280;15571;50.974;13.936;2023-09-18T13:39:38;99332.66;;;25.55;100.00
28310;BME280;15571;50.974;13.936;2023-09-18T13:42:39;99333.66;;;25.42;100.00
28310;BME280;15571;50.974;13.936;2023-09-18T13:45:43;99324.28;;;25.48;100.00
28310;BME280;15571;50.974;13.936;2023-09-18T13:48:45;99334.66;;;25.30;100.00
28310;BME280;15571;50.974;13.936;2023-09-18T13:51:48;99325.28;;;25.36;100.00
28310;BME280;15571;50.974;13.936;2023-09-18T13:54:51;99334.28;;;25.23;100.00
28310;BME280;15571;50.974;13.936;2023-09-18T13:57:55;99333.34;;;25.13;100.00
28310;BME280;15571;50.974;13.936;2023-09-18T14:01:04;99337.50;;;25.06;100.00
28310;BME280;15571;50.974;13.936;2023-09-18T14:04:07;99337.97;;;24.99;100.00
28310;BME280;15571;50.974;13.936;2023-09-18T14:07:09;99331.78;;;24.99;100.00
28310;BME280;15571;50.974;13.936;2023-09-18T14:10:11;99332.59;;;24.99;100.00
28310;BME280;15571;50.974;13.936;2023-09-18T14:13:13;99326.03;;;25.04;100.00
28310;BME280;15571;50.974;13.936;2023-09-18T14:16:19;99329.47;;;24.94;100.00
28310;BME280;15571;50.974;13.936;2023-09-18T14:19:21;99319.25;;;24.88;100.00
28310;BME280;15571;50.974;13.936;2023-09-18T14:22:26;99322.91;;;24.87;100.00
28310;BME280;15571;50.974;13.936;2023-09-18T14:25:33;99329.97;;;24.88;100.00
28310;BME280;15571;50.974;13.936;2023-09-18T14:28:35;99334.31;;;25.00;100.00
28310;BME280;15571;50.974;13.936;2023-09-18T14:31:38;99330.53;;;25.14;100.00
28310;BME280;15571;50.974;13.936;2023-09-18T14:34:44;99332.81;;;25.19;100.00
28310;BME280;15571;50.974;13.936;2023-09-18T14:37:46;99336.16;;;25.11;100.00
28310;BME280;15571;50.974;13.936;2023-09-18T14:40:48;99341.38;;;25.13;100.00
28310;BME280;15571;50.974;13.936;2023-09-18T14:43:51;99337.25;;;24.97;100.00
28310;BME280;15571;50.974;13.936;2023-09-18T14:46:54;99334.22;;;24.91;100.00
28310;BME280;15571;50.974;13.936;2023-09-18T14:50:01;99347.47;;;24.92;100.00
28310;BME280;15571;50.974;13.936;2023-09-18T14:53:06;99350.66;;;24.97;100.00
28310;BME280;15571;50.974;13.936;2023-09-18T14:56:12;99337.97;;;24.99;100.00
28310;BME280;15571;50.974;13.936;2023-09-18T14:59:17;99348.44;;;25.02;100.00
28310;BME280;15571;50.974;13.936;2023-09-18T15:06:31;99355.97;;;25.09;100.00
28310;BME280;15571;50.974;13.936;2023-09-18T15:09:38;99343.09;;;25.02;100.00
28310;BME280;15571;50.974;13.936;2023-09-18T15:12:42;99356.00;;;24.97;100.00
28310;BME280;15571;50.974;13.936;2023-09-18T15:15:43;99347.22;;;24.84;100.00
28310;BME280;15571;50.974;13.936;2023-09-18T15:18:46;99350.03;;;24.71;100.00
28310;BME280;15571;50.974;13.936;2023-09-18T15:21:54;99360.97;;;24.68;100.00
28310;BME280;15571;50.974;13.936;2023-09-18T15:25:03;99361.56;;;24.71;100.00
28310;BME280;15571;50.974;13.936;2023-09-18T15:28:05;99358.16;;;24.81;100.00
28310;BME280;15571;50.974;13.936;2023-09-18T15:31:07;99366.09;;;24.82;100.00
28310;BME280;15571;50.974;13.936;2023-09-18T15:34:09;99370.09;;;24.99;100.00
28310;BME280;15571;50.974;13.936;2023-09-18T15:37:12;99366.34;;;25.02;100.00
28310;BME280;15571;50.974;13.936;2023-09-18T15:40:16;99377.03;;;25.13;100.00
28310;BME280;15571;50.974;13.936;2023-09-18T15:43:20;99380.44;;;25.15;100.00
28310;BME280;15571;50.974;13.936;2023-09-18T15:46:24;99379.09;;;25.10;100.00
28310;BME280;15571;50.974;13.936;2023-09-18T15:49:30;99380.69;;;24.90;100.00
28310;BME280;15571;50.974;13.936;2023-09-18T15:52:37;99393.19;;;24.89;100.00
28310;BME280;15571;50.974;13.936;2023-09-18T15:55:39;99387.16;;;24.87;100.00
28310;BME280;15571;50.974;13.936;2023-09-18T15:58:41;99395.91;;;24.78;100.00
28310;BME280;15571;50.974;13.936;2023-09-18T16:01:43;99392.91;;;24.58;100.00
28310;BME280;15571;50.974;13.936;2023-09-18T16:04:47;99400.44;;;24.53;100.00